Riondel, Canada
Current Conditions -  °F | °C
As of 6:00 PM on Friday 24 Oct 2014 (Local Time) from CYCG Reporting Station
Overcast Overcast  
Wind Chill: 48°   Ceiling: 20000
Heat Index: 48°   Visibility: 15mi
Dew Point: 41°   Wind: 2mph
Humidity: 76%   Direction: NA
Pressure: 30.06"   Gusts: NA
Location:  49.77°N, 116.85°W
Report Text: CYCG 250100Z VRB02KT 15SM FEW170 OVC200 09/05 A3006 RMK AC1CI7 SLP189
Loading
Personal Weather Stations






























Interactive Weather Map
Tropical Storm Tracking
New forecast layout! Learn more

10-Day Weather Forecast

Advertisements
Track Severe Weather on mobile